createdAt,value
2023-04-22T00:00:23.524Z,9.13
2023-04-22T00:02:50.951Z,9.07
2023-04-22T00:05:20.570Z,9.90
2023-04-22T00:07:48.817Z,10.60
2023-04-22T00:10:16.298Z,9.48
2023-04-22T00:12:43.944Z,9.13
2023-04-22T00:15:11.652Z,8.32
2023-04-22T00:17:40.198Z,9.75
2023-04-22T00:20:10.801Z,8.23
2023-04-22T00:22:38.581Z,9.70
2023-04-22T00:25:07.034Z,8.38
2023-04-22T00:30:01.608Z,10.10
2023-04-22T00:32:29.047Z,10.02
2023-04-22T00:34:57.479Z,7.53
2023-04-22T00:39:52.760Z,9.55
2023-04-22T00:42:23.009Z,9.23
2023-04-22T00:44:52.085Z,10.07
2023-04-22T00:47:20.894Z,9.55
2023-04-22T00:49:52.504Z,9.90
2023-04-22T00:52:19.977Z,10.85
2023-04-22T00:54:48.134Z,11.32
2023-04-22T00:57:15.936Z,9.77
2023-04-22T00:59:44.560Z,8.35
2023-04-22T01:02:12.880Z,8.35
2023-04-22T01:07:07.987Z,7.07
2023-04-22T01:09:35.581Z,10.98
2023-04-22T01:12:05.997Z,7.18
2023-04-22T01:14:33.402Z,8.00
2023-04-22T01:17:00.940Z,8.85
2023-04-22T01:19:29.390Z,8.98
2023-04-22T01:21:58.002Z,8.45
2023-04-22T01:24:26.498Z,8.75
2023-04-22T01:29:21.255Z,9.23
2023-04-22T01:31:48.620Z,8.90
2023-04-22T01:34:16.051Z,7.85
2023-04-22T01:36:44.895Z,8.32
2023-04-22T01:41:39.687Z,8.60
2023-04-22T01:44:06.969Z,9.43
2023-04-22T01:46:34.806Z,9.40
2023-04-22T01:49:02.137Z,10.57
2023-04-22T01:51:30.084Z,10.45
2023-04-22T01:53:57.360Z,8.85
2023-04-22T01:56:24.669Z,9.55
2023-04-22T01:58:52.114Z,9.95
2023-04-22T02:01:20.054Z,9.82
2023-04-22T02:03:47.466Z,11.13
2023-04-22T02:06:17.526Z,12.10
2023-04-22T02:08:44.704Z,9.30
2023-04-22T02:11:13.671Z,8.93
2023-04-22T02:13:41.834Z,10.15
2023-04-22T02:16:09.558Z,8.93
2023-04-22T02:18:37.013Z,10.50
2023-04-22T02:21:07.105Z,12.60
2023-04-22T02:23:34.390Z,11.43
2023-04-22T02:26:03.184Z,11.35
2023-04-22T02:28:30.462Z,11.70
2023-04-22T02:30:58.284Z,10.18
2023-04-22T02:33:25.788Z,11.48
2023-04-22T02:35:53.823Z,8.40
2023-04-22T02:38:21.025Z,9.00
2023-04-22T02:40:48.245Z,9.98
2023-04-22T02:43:15.525Z,12.20
2023-04-22T02:45:42.692Z,12.25
2023-04-22T02:48:10.211Z,16.50
2023-04-22T02:50:37.478Z,11.35
2023-04-22T02:53:04.748Z,12.65
2023-04-22T02:55:31.993Z,14.07
2023-04-22T02:57:59.214Z,15.20
2023-04-22T03:00:26.768Z,12.95
2023-04-22T03:02:54.463Z,13.48
2023-04-22T03:05:26.269Z,11.35
2023-04-22T03:07:54.816Z,11.95
2023-04-22T03:10:22.312Z,17.60
2023-04-22T03:12:50.961Z,13.23
2023-04-22T03:15:21.231Z,12.45
2023-04-22T03:17:49.626Z,11.80
2023-04-22T03:20:18.483Z,13.05
2023-04-22T03:22:45.800Z,11.05
2023-04-22T03:25:14.650Z,14.23
2023-04-22T03:27:46.160Z,10.98
2023-04-22T03:30:13.564Z,12.70
2023-04-22T03:32:40.909Z,11.15
2023-04-22T03:35:21.226Z,13.18
2023-04-22T03:37:50.775Z,14.48
2023-04-22T03:40:22.790Z,13.60
2023-04-22T03:42:50.221Z,15.20
2023-04-22T03:45:20.019Z,11.82
2023-04-22T03:47:54.976Z,15.32
2023-04-22T03:50:27.748Z,12.77
2023-04-22T03:52:56.090Z,13.18
2023-04-22T03:55:23.735Z,12.20
2023-04-22T03:57:53.208Z,13.88
2023-04-22T04:00:20.912Z,13.68
2023-04-22T04:02:56.871Z,15.07
2023-04-22T04:05:30.104Z,13.40
2023-04-22T04:07:58.103Z,13.85
2023-04-22T04:10:26.122Z,12.40
2023-04-22T04:12:55.278Z,14.43
2023-04-22T04:15:24.597Z,15.20
2023-04-22T04:17:52.705Z,14.43
2023-04-22T04:20:21.206Z,12.68
2023-04-22T04:22:48.541Z,11.40
2023-04-22T04:25:16.056Z,13.60
2023-04-22T04:27:47.603Z,13.85
2023-04-22T04:30:16.260Z,14.50
2023-04-22T04:32:48.097Z,14.52
2023-04-22T04:35:18.368Z,14.05
2023-04-22T04:37:51.357Z,12.05
2023-04-22T04:40:19.073Z,13.23
2023-04-22T04:43:04.662Z,12.65
2023-04-22T04:45:37.782Z,14.55
2023-04-22T04:48:09.557Z,12.63
2023-04-22T04:50:44.377Z,14.02
2023-04-22T04:53:12.215Z,12.23
2023-04-22T04:55:41.848Z,14.05
2023-04-22T04:58:16.966Z,14.38
2023-04-22T05:00:44.441Z,12.27
2023-04-22T05:03:12.482Z,11.82
2023-04-22T05:05:40.264Z,10.02
2023-04-22T05:08:07.497Z,9.30
2023-04-22T05:10:37.360Z,12.05
2023-04-22T05:13:05.068Z,11.80
2023-04-22T05:15:33.136Z,10.48
2023-04-22T05:18:00.891Z,11.98
2023-04-22T05:20:28.255Z,10.25
2023-04-22T05:22:56.508Z,10.88
2023-04-22T05:25:24.311Z,11.13
2023-04-22T05:27:58.772Z,10.73
2023-04-22T05:30:29.722Z,11.02
2023-04-22T05:32:57.093Z,11.50
2023-04-22T05:35:24.737Z,14.05
2023-04-22T05:37:52.106Z,12.05
2023-04-22T05:40:19.572Z,14.02
2023-04-22T05:42:46.963Z,12.02
2023-04-22T05:45:15.668Z,10.77
2023-04-22T05:47:43.338Z,11.15
2023-04-22T05:50:11.402Z,14.15
2023-04-22T05:52:48.781Z,12.65
2023-04-22T05:55:17.922Z,13.15
2023-04-22T05:57:45.812Z,10.57
2023-04-22T06:00:25.516Z,12.98
2023-04-22T06:03:08.095Z,10.95
2023-04-22T06:05:36.553Z,11.55
2023-04-22T06:08:03.926Z,14.10
2023-04-22T06:10:31.212Z,15.85
2023-04-22T06:12:58.841Z,13.20
2023-04-22T06:15:26.502Z,16.25
2023-04-22T06:17:54.212Z,14.35
2023-04-22T06:20:21.618Z,13.23
2023-04-22T06:22:51.787Z,11.00
2023-04-22T06:25:20.038Z,10.32
2023-04-22T06:27:47.230Z,10.57
2023-04-22T06:30:15.896Z,9.45
2023-04-22T06:32:43.280Z,10.77
2023-04-22T06:35:11.094Z,10.15
2023-04-22T06:37:38.676Z,9.63
2023-04-22T06:40:09.672Z,10.30
2023-04-22T06:42:55.723Z,10.27
2023-04-22T06:45:43.035Z,8.93
2023-04-22T06:48:22.325Z,8.40
2023-04-22T06:51:15.254Z,8.43
2023-04-22T06:53:42.512Z,12.20
2023-04-22T06:56:12.732Z,8.52
2023-04-22T06:58:40.343Z,8.30
2023-04-22T07:01:07.876Z,7.88
2023-04-22T07:03:37.242Z,10.25
2023-04-22T07:06:09.921Z,10.65
2023-04-22T07:08:37.292Z,10.23
2023-04-22T07:11:04.804Z,10.30
2023-04-22T07:13:37.587Z,9.40
2023-04-22T07:16:06.048Z,10.82
2023-04-22T07:21:03.010Z,12.15
2023-04-22T07:23:30.328Z,10.65
2023-04-22T07:25:57.649Z,10.00
2023-04-22T07:28:25.053Z,11.02
2023-04-22T07:30:54.943Z,10.32
2023-04-22T07:33:22.267Z,10.38
2023-04-22T07:35:49.624Z,11.48
2023-04-22T07:38:16.868Z,9.75
2023-04-22T07:40:44.020Z,10.90
2023-04-22T07:43:11.290Z,9.75
2023-04-22T07:45:38.578Z,11.95
2023-04-22T07:48:05.968Z,9.10
2023-04-22T07:50:33.334Z,10.30
2023-04-22T07:53:00.775Z,8.70
2023-04-22T07:55:28.185Z,8.73
2023-04-22T07:57:56.105Z,9.95
2023-04-22T08:00:23.558Z,10.35
2023-04-22T08:02:50.977Z,10.10
2023-04-22T08:05:18.728Z,9.23
2023-04-22T08:07:46.331Z,9.70
2023-04-22T08:10:13.484Z,13.18
2023-04-22T08:12:40.712Z,11.43
2023-04-22T08:15:08.663Z,9.23
2023-04-22T08:17:35.947Z,9.07
2023-04-22T08:20:05.905Z,11.02
2023-04-22T08:22:35.353Z,10.02
2023-04-22T08:25:02.860Z,11.20
2023-04-22T08:27:30.720Z,11.45
2023-04-22T08:29:57.874Z,10.00
2023-04-22T08:32:26.391Z,10.10
2023-04-22T08:34:57.590Z,10.00
2023-04-22T08:37:30.961Z,11.60
2023-04-22T08:39:58.165Z,10.27
2023-04-22T08:42:27.163Z,11.15
2023-04-22T08:44:57.606Z,10.68
2023-04-22T08:47:26.416Z,10.25
2023-04-22T08:49:56.299Z,9.82
2023-04-22T08:52:23.532Z,10.57
2023-04-22T08:54:51.266Z,11.02
2023-04-22T08:57:19.936Z,9.63
2023-04-22T08:59:47.216Z,9.43
2023-04-22T09:02:20.641Z,10.38
2023-04-22T09:04:51.605Z,10.70
2023-04-22T09:07:31.296Z,10.68
2023-04-22T09:09:59.329Z,9.43
2023-04-22T09:12:27.030Z,8.02
2023-04-22T09:14:55.079Z,8.25
2023-04-22T09:17:38.397Z,8.45
2023-04-22T09:20:09.635Z,9.23
2023-04-22T09:22:45.241Z,8.63
2023-04-22T09:25:20.264Z,8.50
2023-04-22T09:27:57.201Z,9.23
2023-04-22T09:30:37.624Z,9.20
2023-04-22T09:35:41.173Z,8.25
2023-04-22T09:38:12.437Z,9.70
2023-04-22T09:40:44.319Z,9.38
2023-04-22T09:43:12.386Z,7.55
2023-04-22T09:45:43.373Z,8.85
2023-04-22T09:48:15.738Z,9.57
2023-04-22T09:50:51.586Z,10.00
2023-04-22T09:53:22.081Z,8.02
2023-04-22T09:55:55.613Z,10.15
2023-04-22T09:58:27.645Z,8.68
2023-04-22T10:00:59.092Z,7.30
2023-04-22T10:03:26.405Z,7.18
2023-04-22T10:05:53.690Z,9.30
2023-04-22T10:08:21.046Z,7.10
2023-04-22T10:10:48.284Z,8.18
2023-04-22T10:13:15.740Z,9.10
2023-04-22T10:15:52.191Z,9.15
2023-04-22T10:18:26.801Z,8.27
2023-04-22T10:20:56.746Z,6.90
2023-04-22T10:23:25.858Z,7.65
2023-04-22T10:25:57.123Z,8.25
2023-04-22T10:28:31.854Z,9.07
2023-04-22T10:30:58.997Z,7.55
2023-04-22T10:33:36.464Z,9.13
2023-04-22T10:36:15.757Z,10.00
2023-04-22T10:38:55.264Z,15.30
2023-04-22T10:41:35.250Z,7.80
2023-04-22T10:44:07.842Z,6.68
2023-04-22T10:46:37.046Z,7.30
2023-04-22T10:49:13.919Z,7.57
2023-04-22T10:51:46.596Z,6.72
2023-04-22T10:54:31.562Z,8.57
2023-04-22T10:57:19.842Z,6.63
2023-04-22T10:59:58.409Z,8.45
2023-04-22T11:02:26.019Z,9.13
2023-04-22T11:05:27.710Z,7.25
2023-04-22T11:08:05.934Z,11.07
2023-04-22T11:10:44.877Z,9.77
2023-04-22T11:13:21.243Z,10.15
2023-04-22T11:15:53.996Z,8.10
2023-04-22T11:18:28.856Z,10.40
2023-04-22T11:20:58.923Z,9.02
2023-04-22T11:23:28.658Z,10.40
2023-04-22T11:26:07.264Z,8.93
2023-04-22T11:28:34.521Z,8.80
2023-04-22T11:31:07.637Z,14.10
2023-04-22T11:33:35.432Z,9.15
2023-04-22T11:36:03.082Z,9.55
2023-04-22T11:38:30.633Z,10.88
2023-04-22T11:40:58.825Z,10.32
2023-04-22T11:45:57.071Z,10.25
2023-04-22T11:48:24.509Z,13.40
2023-04-22T11:51:11.362Z,11.45
2023-04-22T11:53:40.105Z,9.60
2023-04-22T11:56:07.417Z,7.78
2023-04-22T11:58:40.846Z,9.98
2023-04-22T12:01:14.025Z,9.32
2023-04-22T12:03:41.675Z,9.00
2023-04-22T12:08:41.938Z,10.25
2023-04-22T12:11:11.962Z,8.57
2023-04-22T12:13:40.300Z,9.10
2023-04-22T12:16:20.170Z,9.52
2023-04-22T12:18:55.550Z,7.65
2023-04-22T12:21:28.339Z,10.15
2023-04-22T12:24:10.425Z,9.93
2023-04-22T12:26:37.905Z,9.43
2023-04-22T12:29:05.216Z,10.68
2023-04-22T12:31:32.943Z,9.00
2023-04-22T12:34:00.381Z,9.18
2023-04-22T12:36:27.712Z,12.10
2023-04-22T12:38:54.858Z,11.57
2023-04-22T12:41:23.576Z,10.40
2023-04-22T12:43:52.381Z,10.75
2023-04-22T12:46:19.811Z,8.73
2023-04-22T12:48:47.050Z,8.65
2023-04-22T12:51:14.196Z,12.10
2023-04-22T12:53:41.393Z,9.23
2023-04-22T12:56:08.749Z,12.95
2023-04-22T12:58:35.891Z,10.75
2023-04-22T13:01:03.025Z,11.60
2023-04-22T13:03:30.405Z,13.77
2023-04-22T13:05:58.124Z,10.27
2023-04-22T13:08:25.381Z,11.75
2023-04-22T13:10:52.634Z,10.30
2023-04-22T13:13:19.841Z,11.55
2023-04-22T13:15:53.043Z,12.00
2023-04-22T13:18:22.509Z,10.85
2023-04-22T13:20:49.727Z,11.93
2023-04-22T13:23:17.479Z,11.77
2023-04-22T13:25:44.769Z,10.20
2023-04-22T13:28:11.976Z,12.30
2023-04-22T13:30:39.970Z,11.68
2023-04-22T13:33:07.344Z,11.52
2023-04-22T13:35:34.541Z,11.75
2023-04-22T13:38:01.929Z,10.10
2023-04-22T13:40:29.119Z,11.10
2023-04-22T13:42:56.348Z,9.23
2023-04-22T13:45:26.132Z,9.15
2023-04-22T13:47:54.390Z,9.15
2023-04-22T13:50:23.108Z,8.68
2023-04-22T13:52:50.346Z,9.52
2023-04-22T13:55:17.655Z,8.15
2023-04-22T13:57:45.585Z,8.27
2023-04-22T14:00:13.679Z,8.88
2023-04-22T14:02:41.175Z,8.82
2023-04-22T14:05:09.856Z,10.80
2023-04-22T14:07:37.359Z,10.05
2023-04-22T14:10:07.838Z,8.23
2023-04-22T14:12:35.062Z,10.73
2023-04-22T14:15:02.230Z,9.95
2023-04-22T14:17:29.843Z,8.25
2023-04-22T14:19:57.193Z,7.70
2023-04-22T14:22:24.629Z,11.73
2023-04-22T14:24:51.763Z,8.00
2023-04-22T14:27:18.953Z,8.60
2023-04-22T14:29:46.230Z,7.65
2023-04-22T14:32:13.627Z,7.70
2023-04-22T14:34:40.831Z,8.25
2023-04-22T14:37:08.063Z,8.07
2023-04-22T14:39:35.331Z,6.88
2023-04-22T14:42:03.693Z,6.57
2023-04-22T14:44:31.280Z,6.65
2023-04-22T14:46:58.669Z,7.03
2023-04-22T14:49:25.900Z,7.50
2023-04-22T14:51:53.077Z,7.05
2023-04-22T14:54:20.244Z,6.60
2023-04-22T14:56:47.928Z,5.57
2023-04-22T14:59:15.168Z,5.68
2023-04-22T15:01:43.048Z,5.50
2023-04-22T15:04:13.552Z,5.88
2023-04-22T15:06:41.343Z,6.00
2023-04-22T15:09:09.161Z,5.65
2023-04-22T15:14:03.578Z,5.18
2023-04-22T15:16:30.988Z,5.90
2023-04-22T15:18:58.273Z,4.88
2023-04-22T15:21:25.469Z,5.10
2023-04-22T15:23:53.039Z,4.40
2023-04-22T15:26:20.692Z,5.35
2023-04-22T15:28:50.712Z,5.05
2023-04-22T15:31:20.753Z,5.28
2023-04-22T15:33:47.958Z,5.20
2023-04-22T15:36:18.112Z,4.45
2023-04-22T15:38:45.360Z,4.75
2023-04-22T15:41:13.154Z,3.67
2023-04-22T15:43:40.587Z,4.93
2023-04-22T15:46:08.454Z,3.97
2023-04-22T15:48:35.639Z,5.55
2023-04-22T15:51:02.946Z,4.00
2023-04-22T15:53:30.204Z,5.85
2023-04-22T15:55:58.054Z,4.70
2023-04-22T15:58:25.318Z,5.25
2023-04-22T16:00:52.589Z,5.43
2023-04-22T16:03:20.002Z,3.95
2023-04-22T16:05:47.429Z,5.10
2023-04-22T16:08:14.803Z,3.70
2023-04-22T16:10:42.082Z,4.10
2023-04-22T16:13:10.309Z,5.03
2023-04-22T16:15:38.154Z,4.93
2023-04-22T16:18:05.851Z,6.68
2023-04-22T16:20:33.175Z,4.70
2023-04-22T16:23:00.451Z,4.75
2023-04-22T16:25:29.435Z,5.50
2023-04-22T16:27:57.179Z,5.35
2023-04-22T16:30:24.646Z,5.00
2023-04-22T16:32:51.835Z,5.57
2023-04-22T16:35:19.121Z,5.15
2023-04-22T16:37:47.098Z,5.93
2023-04-22T16:42:41.447Z,8.20
2023-04-22T16:45:09.201Z,6.07
2023-04-22T16:47:36.440Z,6.10
2023-04-22T16:50:04.382Z,5.78
2023-04-22T16:55:00.311Z,6.22
2023-04-22T16:57:27.521Z,5.88
2023-04-22T16:59:54.785Z,5.45
2023-04-22T17:02:24.319Z,5.30
2023-04-22T17:04:51.699Z,6.50
2023-04-22T17:07:18.922Z,6.38
2023-04-22T17:09:46.293Z,6.45
2023-04-22T17:12:13.506Z,6.07
2023-04-22T17:14:42.718Z,7.35
2023-04-22T17:17:09.895Z,7.10
2023-04-22T17:19:37.096Z,6.43
2023-04-22T17:22:04.942Z,7.65
2023-04-22T17:24:32.371Z,8.52
2023-04-22T17:26:59.550Z,8.43
2023-04-22T17:29:26.885Z,8.23
2023-04-22T17:31:54.215Z,8.57
2023-04-22T17:34:21.514Z,15.38
2023-04-22T17:36:48.758Z,7.72
2023-04-22T17:39:16.086Z,6.72
2023-04-22T17:41:44.388Z,8.20
2023-04-22T17:44:12.278Z,8.27
2023-04-22T17:46:41.151Z,8.48
2023-04-22T17:49:08.389Z,7.50
2023-04-22T17:51:35.633Z,12.85
2023-04-22T17:54:05.142Z,18.33
2023-04-22T17:56:32.481Z,9.15
2023-04-22T17:58:59.659Z,7.97
2023-04-22T18:01:29.504Z,10.02
2023-04-22T18:03:58.502Z,8.85
2023-04-22T18:06:25.770Z,10.13
2023-04-22T18:08:52.919Z,9.80
2023-04-22T18:11:20.230Z,10.27
2023-04-22T18:13:47.686Z,9.23
2023-04-22T18:16:14.945Z,10.50
2023-04-22T18:18:42.135Z,8.85
2023-04-22T18:21:09.490Z,12.95
2023-04-22T18:23:36.837Z,9.80
2023-04-22T18:26:09.601Z,10.65
2023-04-22T18:28:41.068Z,17.48
2023-04-22T18:31:08.766Z,11.48
2023-04-22T18:33:36.489Z,11.95
2023-04-22T18:36:04.205Z,11.02
2023-04-22T18:38:31.529Z,15.13
2023-04-22T18:40:58.751Z,11.63
2023-04-22T18:43:26.032Z,10.60
2023-04-22T18:45:53.253Z,11.75
2023-04-22T18:48:22.351Z,11.23
2023-04-22T18:50:50.362Z,13.88
2023-04-22T18:53:17.718Z,15.80
2023-04-22T18:55:45.013Z,11.45
2023-04-22T18:58:12.234Z,13.60
2023-04-22T19:00:42.642Z,11.23
2023-04-22T19:03:10.544Z,15.00
2023-04-22T19:05:38.839Z,10.85
2023-04-22T19:10:33.663Z,12.48
2023-04-22T19:13:00.882Z,12.27
2023-04-22T19:15:28.205Z,10.95
2023-04-22T19:17:55.521Z,13.95
2023-04-22T19:20:22.735Z,12.18
2023-04-22T19:22:50.256Z,15.63
2023-04-22T19:25:18.693Z,12.52
2023-04-22T19:27:45.949Z,11.93
2023-04-22T19:30:14.797Z,13.80
2023-04-22T19:32:42.375Z,15.20
2023-04-22T19:35:16.034Z,12.80
2023-04-22T19:37:45.442Z,19.40
2023-04-22T19:40:18.733Z,13.18
2023-04-22T19:42:46.496Z,12.25
2023-04-22T19:45:13.785Z,13.13
2023-04-22T19:47:41.539Z,12.43
2023-04-22T19:50:09.883Z,12.77
2023-04-22T19:52:40.428Z,11.88
2023-04-22T19:55:09.138Z,13.68
2023-04-22T19:57:38.808Z,14.05
2023-04-22T20:00:11.074Z,13.60
2023-04-22T20:02:42.776Z,14.43
2023-04-22T20:05:10.774Z,13.70
2023-04-22T20:07:43.154Z,17.27
2023-04-22T20:10:11.310Z,13.05
2023-04-22T20:12:38.884Z,18.40
2023-04-22T20:15:07.947Z,12.90
2023-04-22T20:17:38.579Z,12.68
2023-04-22T20:20:12.701Z,15.45
2023-04-22T20:22:45.312Z,14.18
2023-04-22T20:25:17.078Z,15.85
2023-04-22T20:27:45.140Z,16.13
2023-04-22T20:30:14.576Z,15.07
2023-04-22T20:32:42.335Z,18.60
2023-04-22T20:35:15.014Z,14.00
2023-04-22T20:37:46.032Z,16.48
2023-04-22T20:40:15.101Z,12.85
2023-04-22T20:42:42.371Z,13.93
2023-04-22T20:45:14.977Z,17.20
2023-04-22T20:47:43.032Z,13.77
2023-04-22T20:50:11.295Z,13.90
2023-04-22T20:52:39.115Z,14.30
2023-04-22T20:55:07.173Z,14.70
2023-04-22T20:57:35.138Z,14.20
2023-04-22T21:00:07.086Z,15.15
2023-04-22T21:02:36.314Z,17.27
2023-04-22T21:05:05.379Z,17.95
2023-04-22T21:07:35.069Z,14.65
2023-04-22T21:10:02.952Z,17.52
2023-04-22T21:12:31.310Z,18.25
2023-04-22T21:17:33.432Z,18.45
2023-04-22T21:20:09.099Z,16.75
2023-04-22T21:22:37.808Z,19.38
2023-04-22T21:25:06.207Z,18.65
2023-04-22T21:27:33.886Z,18.67
2023-04-22T21:30:02.153Z,19.10
2023-04-22T21:34:56.836Z,16.92
2023-04-22T21:37:24.444Z,19.83
2023-04-22T21:39:51.582Z,21.40
2023-04-22T21:42:18.741Z,20.75
2023-04-22T21:44:49.699Z,19.17
2023-04-22T21:47:17.328Z,19.10
2023-04-22T21:49:46.505Z,19.55
2023-04-22T21:52:13.674Z,20.92
2023-04-22T21:54:41.117Z,20.00
2023-04-22T21:57:09.104Z,20.88
2023-04-22T21:59:36.399Z,18.42
2023-04-22T22:02:04.046Z,19.70
2023-04-22T22:04:31.558Z,20.58
2023-04-22T22:06:58.791Z,17.98
2023-04-22T22:09:26.461Z,19.67
2023-04-22T22:11:53.721Z,17.00
2023-04-22T22:14:20.889Z,19.23
2023-04-22T22:16:49.937Z,18.00
2023-04-22T22:19:17.231Z,16.52
2023-04-22T22:21:44.436Z,16.05
2023-04-22T22:24:11.838Z,16.45
2023-04-22T22:26:41.181Z,17.58
2023-04-22T22:29:15.132Z,16.35
2023-04-22T22:31:47.295Z,16.98
2023-04-22T22:34:14.510Z,16.83
2023-04-22T22:36:41.746Z,16.95
2023-04-22T22:39:10.295Z,16.60
2023-04-22T22:41:37.477Z,15.35
2023-04-22T22:44:04.640Z,17.48
2023-04-22T22:46:31.971Z,18.48
2023-04-22T22:48:59.486Z,17.80
2023-04-22T22:51:29.799Z,17.20
2023-04-22T22:53:57.052Z,17.10
2023-04-22T22:56:24.442Z,17.88
2023-04-22T22:58:51.819Z,18.00
2023-04-22T23:01:19.166Z,16.98
2023-04-22T23:03:48.276Z,19.70
2023-04-22T23:06:16.255Z,17.67
2023-04-22T23:08:43.407Z,16.23
2023-04-22T23:11:11.089Z,17.73
2023-04-22T23:13:38.228Z,18.17
2023-04-22T23:16:05.972Z,20.52
2023-04-22T23:18:34.114Z,18.77
2023-04-22T23:21:02.000Z,19.10
2023-04-22T23:23:29.843Z,19.05
2023-04-22T23:25:57.903Z,17.73
2023-04-22T23:28:26.044Z,19.23
2023-04-22T23:30:55.864Z,19.48
2023-04-22T23:33:28.258Z,18.17
2023-04-22T23:35:57.425Z,24.85
2023-04-22T23:38:24.724Z,24.48
2023-04-22T23:40:52.006Z,20.20
2023-04-22T23:43:19.175Z,21.80
2023-04-22T23:45:46.540Z,19.92
2023-04-22T23:48:14.072Z,21.33
2023-04-22T23:50:41.403Z,20.60
2023-04-22T23:53:08.602Z,22.70
2023-04-22T23:55:36.760Z,22.60
2023-04-22T23:58:04.249Z,21.38
